sensor_id;sensor_type;location;lat;lon;timestamp;temperature;humidity
3051;DHT22;1535;51.098;6.414;2022-11-03T00:01:10;10.00;99.90
3051;DHT22;1535;51.098;6.414;2022-11-03T00:03:38;10.00;99.90
3051;DHT22;1535;51.098;6.414;2022-11-03T00:06:05;10.00;99.90
3051;DHT22;1535;51.098;6.414;2022-11-03T00:08:34;10.00;99.90
3051;DHT22;1535;51.098;6.414;2022-11-03T00:11:05;10.00;99.90
3051;DHT22;1535;51.098;6.414;2022-11-03T00:13:34;10.00;99.90
3051;DHT22;1535;51.098;6.414;2022-11-03T00:16:01;10.00;99.90
3051;DHT22;1535;51.098;6.414;2022-11-03T00:18:29;10.00;99.90
3051;DHT22;1535;51.098;6.414;2022-11-03T00:21:01;10.00;99.90
3051;DHT22;1535;51.098;6.414;2022-11-03T00:23:29;10.00;99.90
3051;DHT22;1535;51.098;6.414;2022-11-03T00:26:06;10.00;99.90
3051;DHT22;1535;51.098;6.414;2022-11-03T00:28:34;10.00;99.90
3051;DHT22;1535;51.098;6.414;2022-11-03T00:31:05;10.00;99.90
3051;DHT22;1535;51.098;6.414;2022-11-03T00:33:33;10.00;99.90
3051;DHT22;1535;51.098;6.414;2022-11-03T00:36:01;9.90;99.90
3051;DHT22;1535;51.098;6.414;2022-11-03T00:38:29;9.90;99.90
3051;DHT22;1535;51.098;6.414;2022-11-03T00:40:57;9.90;99.90
3051;DHT22;1535;51.098;6.414;2022-11-03T00:43:25;9.80;99.90
3051;DHT22;1535;51.098;6.414;2022-11-03T00:45:53;9.80;99.90
3051;DHT22;1535;51.098;6.414;2022-11-03T00:48:20;9.80;99.90
3051;DHT22;1535;51.098;6.414;2022-11-03T00:51:09;9.80;99.90
3051;DHT22;1535;51.098;6.414;2022-11-03T00:53:37;9.70;99.90
3051;DHT22;1535;51.098;6.414;2022-11-03T00:56:06;9.70;99.90
3051;DHT22;1535;51.098;6.414;2022-11-03T00:58:34;9.70;99.90
3051;DHT22;1535;51.098;6.414;2022-11-03T01:01:03;9.70;99.90
3051;DHT22;1535;51.098;6.414;2022-11-03T01:03:31;9.70;99.90
3051;DHT22;1535;51.098;6.414;2022-11-03T01:05:59;9.60;99.90
3051;DHT22;1535;51.098;6.414;2022-11-03T01:08:45;9.60;99.90
3051;DHT22;1535;51.098;6.414;2022-11-03T01:11:16;9.50;99.90
3051;DHT22;1535;51.098;6.414;2022-11-03T01:14:02;9.50;99.90
3051;DHT22;1535;51.098;6.414;2022-11-03T01:16:30;9.50;99.90
3051;DHT22;1535;51.098;6.414;2022-11-03T01:18:58;9.50;99.90
3051;DHT22;1535;51.098;6.414;2022-11-03T01:21:25;9.50;99.90
3051;DHT22;1535;51.098;6.414;2022-11-03T01:23:54;9.50;99.90
3051;DHT22;1535;51.098;6.414;2022-11-03T01:29:50;9.50;99.90
3051;DHT22;1535;51.098;6.414;2022-11-03T01:32:24;9.50;99.90
3051;DHT22;1535;51.098;6.414;2022-11-03T01:34:52;9.50;99.90
3051;DHT22;1535;51.098;6.414;2022-11-03T01:37:19;9.50;99.90
3051;DHT22;1535;51.098;6.414;2022-11-03T01:39:48;9.50;99.90
3051;DHT22;1535;51.098;6.414;2022-11-03T01:42:14;9.50;99.90
3051;DHT22;1535;51.098;6.414;2022-11-03T01:44:45;9.50;99.90
3051;DHT22;1535;51.098;6.414;2022-11-03T01:47:18;9.40;99.90
3051;DHT22;1535;51.098;6.414;2022-11-03T01:49:49;9.50;99.90
3051;DHT22;1535;51.098;6.414;2022-11-03T01:52:21;9.50;99.90
3051;DHT22;1535;51.098;6.414;2022-11-03T01:54:53;9.50;99.90
3051;DHT22;1535;51.098;6.414;2022-11-03T01:57:24;9.50;99.90
3051;DHT22;1535;51.098;6.414;2022-11-03T01:59:56;9.50;99.90
3051;DHT22;1535;51.098;6.414;2022-11-03T02:02:23;9.60;99.90
3051;DHT22;1535;51.098;6.414;2022-11-03T02:04:51;9.60;99.90
3051;DHT22;1535;51.098;6.414;2022-11-03T02:07:24;9.60;99.90
3051;DHT22;1535;51.098;6.414;2022-11-03T02:09:55;9.60;99.90
3051;DHT22;1535;51.098;6.414;2022-11-03T02:12:22;9.60;99.90
3051;DHT22;1535;51.098;6.414;2022-11-03T02:14:51;9.60;99.90
3051;DHT22;1535;51.098;6.414;2022-11-03T02:17:20;9.70;99.90
3051;DHT22;1535;51.098;6.414;2022-11-03T02:19:52;9.70;99.90
3051;DHT22;1535;51.098;6.414;2022-11-03T02:22:33;9.70;99.90
3051;DHT22;1535;51.098;6.414;2022-11-03T02:25:11;9.70;99.90
3051;DHT22;1535;51.098;6.414;2022-11-03T02:27:42;9.70;99.90
3051;DHT22;1535;51.098;6.414;2022-11-03T02:30:10;9.80;99.90
3051;DHT22;1535;51.098;6.414;2022-11-03T02:32:43;9.80;99.90
3051;DHT22;1535;51.098;6.414;2022-11-03T02:35:20;9.90;99.90
3051;DHT22;1535;51.098;6.414;2022-11-03T02:37:51;9.90;99.90
3051;DHT22;1535;51.098;6.414;2022-11-03T02:40:25;9.90;99.90
3051;DHT22;1535;51.098;6.414;2022-11-03T02:42:55;9.90;99.90
3051;DHT22;1535;51.098;6.414;2022-11-03T02:45:24;10.00;99.90
3051;DHT22;1535;51.098;6.414;2022-11-03T02:47:53;10.10;99.90
3051;DHT22;1535;51.098;6.414;2022-11-03T02:50:26;10.10;99.90
3051;DHT22;1535;51.098;6.414;2022-11-03T02:52:54;10.10;99.90
3051;DHT22;1535;51.098;6.414;2022-11-03T02:55:28;10.10;99.90
3051;DHT22;1535;51.098;6.414;2022-11-03T02:58:03;10.10;99.90
3051;DHT22;1535;51.098;6.414;2022-11-03T03:00:36;10.10;99.90
3051;DHT22;1535;51.098;6.414;2022-11-03T03:03:07;10.20;99.90
3051;DHT22;1535;51.098;6.414;2022-11-03T03:05:37;10.30;99.90
3051;DHT22;1535;51.098;6.414;2022-11-03T03:08:08;10.30;99.90
3051;DHT22;1535;51.098;6.414;2022-11-03T03:10:38;10.30;99.90
3051;DHT22;1535;51.098;6.414;2022-11-03T03:13:10;10.30;99.90
3051;DHT22;1535;51.098;6.414;2022-11-03T03:15:44;10.30;99.90
3051;DHT22;1535;51.098;6.414;2022-11-03T03:18:18;10.30;99.90
3051;DHT22;1535;51.098;6.414;2022-11-03T03:20:52;10.30;99.90
3051;DHT22;1535;51.098;6.414;2022-11-03T03:23:22;10.40;99.90
3051;DHT22;1535;51.098;6.414;2022-11-03T03:25:54;10.30;99.90
3051;DHT22;1535;51.098;6.414;2022-11-03T03:28:31;10.30;99.90
3051;DHT22;1535;51.098;6.414;2022-11-03T03:31:00;10.30;99.90
3051;DHT22;1535;51.098;6.414;2022-11-03T03:33:29;10.30;99.90
3051;DHT22;1535;51.098;6.414;2022-11-03T03:35:58;10.20;99.90
3051;DHT22;1535;51.098;6.414;2022-11-03T03:38:31;10.20;99.90
3051;DHT22;1535;51.098;6.414;2022-11-03T03:40:59;10.20;99.90
3051;DHT22;1535;51.098;6.414;2022-11-03T03:43:30;10.20;99.90
3051;DHT22;1535;51.098;6.414;2022-11-03T03:46:02;10.30;99.90
3051;DHT22;1535;51.098;6.414;2022-11-03T03:48:29;10.40;99.90
3051;DHT22;1535;51.098;6.414;2022-11-03T03:51:00;10.40;99.90
3051;DHT22;1535;51.098;6.414;2022-11-03T03:53:28;10.40;99.90
3051;DHT22;1535;51.098;6.414;2022-11-03T03:55:57;10.40;99.90
3051;DHT22;1535;51.098;6.414;2022-11-03T03:58:25;10.40;99.90
3051;DHT22;1535;51.098;6.414;2022-11-03T04:00:53;10.40;99.90
3051;DHT22;1535;51.098;6.414;2022-11-03T04:03:22;10.50;99.90
3051;DHT22;1535;51.098;6.414;2022-11-03T04:05:49;10.50;99.90
3051;DHT22;1535;51.098;6.414;2022-11-03T04:08:16;10.50;99.90
3051;DHT22;1535;51.098;6.414;2022-11-03T04:10:43;10.50;99.90
3051;DHT22;1535;51.098;6.414;2022-11-03T04:13:31;10.50;99.90
3051;DHT22;1535;51.098;6.414;2022-11-03T04:16:18;10.40;99.90
3051;DHT22;1535;51.098;6.414;2022-11-03T04:19:05;10.40;99.90
3051;DHT22;1535;51.098;6.414;2022-11-03T04:21:49;10.40;99.90
3051;DHT22;1535;51.098;6.414;2022-11-03T04:24:34;10.40;99.90
3051;DHT22;1535;51.098;6.414;2022-11-03T04:27:10;10.40;99.90
3051;DHT22;1535;51.098;6.414;2022-11-03T04:29:39;10.40;99.90
3051;DHT22;1535;51.098;6.414;2022-11-03T04:32:12;10.40;99.90
3051;DHT22;1535;51.098;6.414;2022-11-03T04:34:41;10.40;99.90
3051;DHT22;1535;51.098;6.414;2022-11-03T04:37:09;10.40;99.90
3051;DHT22;1535;51.098;6.414;2022-11-03T04:39:37;10.40;99.90
3051;DHT22;1535;51.098;6.414;2022-11-03T04:42:13;10.40;99.90
3051;DHT22;1535;51.098;6.414;2022-11-03T04:44:41;10.40;99.90
3051;DHT22;1535;51.098;6.414;2022-11-03T04:47:11;10.50;99.90
3051;DHT22;1535;51.098;6.414;2022-11-03T04:49:39;10.50;99.90
3051;DHT22;1535;51.098;6.414;2022-11-03T04:52:12;10.40;99.90
3051;DHT22;1535;51.098;6.414;2022-11-03T04:54:40;10.40;99.90
3051;DHT22;1535;51.098;6.414;2022-11-03T04:57:11;10.40;99.90
3051;DHT22;1535;51.098;6.414;2022-11-03T04:59:39;10.50;99.90
3051;DHT22;1535;51.098;6.414;2022-11-03T05:02:12;10.40;99.90
3051;DHT22;1535;51.098;6.414;2022-11-03T05:04:39;10.40;99.90
3051;DHT22;1535;51.098;6.414;2022-11-03T05:07:20;10.40;99.90
3051;DHT22;1535;51.098;6.414;2022-11-03T05:09:48;10.50;99.90
3051;DHT22;1535;51.098;6.414;2022-11-03T05:12:15;10.40;99.90
3051;DHT22;1535;51.098;6.414;2022-11-03T05:14:44;10.40;99.90
3051;DHT22;1535;51.098;6.414;2022-11-03T05:17:20;10.50;99.90
3051;DHT22;1535;51.098;6.414;2022-11-03T05:19:52;10.50;99.90
3051;DHT22;1535;51.098;6.414;2022-11-03T05:22:22;10.50;99.90
3051;DHT22;1535;51.098;6.414;2022-11-03T05:24:55;10.50;99.90
3051;DHT22;1535;51.098;6.414;2022-11-03T05:27:23;10.40;99.90
3051;DHT22;1535;51.098;6.414;2022-11-03T05:29:51;10.50;99.90
3051;DHT22;1535;51.098;6.414;2022-11-03T05:32:23;10.50;99.90
3051;DHT22;1535;51.098;6.414;2022-11-03T05:34:51;10.50;99.90
3051;DHT22;1535;51.098;6.414;2022-11-03T05:37:26;10.50;99.90
3051;DHT22;1535;51.098;6.414;2022-11-03T05:39:56;10.50;99.90
3051;DHT22;1535;51.098;6.414;2022-11-03T05:42:29;10.50;99.90
3051;DHT22;1535;51.098;6.414;2022-11-03T05:44:59;10.50;99.90
3051;DHT22;1535;51.098;6.414;2022-11-03T05:47:33;10.40;99.90
3051;DHT22;1535;51.098;6.414;2022-11-03T05:50:13;10.50;99.90
3051;DHT22;1535;51.098;6.414;2022-11-03T05:52:40;10.40;99.90
3051;DHT22;1535;51.098;6.414;2022-11-03T05:55:21;10.60;99.90
3051;DHT22;1535;51.098;6.414;2022-11-03T05:57:49;10.50;99.90
3051;DHT22;1535;51.098;6.414;2022-11-03T06:00:31;10.50;99.90
3051;DHT22;1535;51.098;6.414;2022-11-03T06:03:00;10.50;99.90
3051;DHT22;1535;51.098;6.414;2022-11-03T06:05:28;10.50;99.90
3051;DHT22;1535;51.098;6.414;2022-11-03T06:08:00;10.50;99.90
3051;DHT22;1535;51.098;6.414;2022-11-03T06:10:29;10.50;99.90
3051;DHT22;1535;51.098;6.414;2022-11-03T06:13:06;10.50;99.90
3051;DHT22;1535;51.098;6.414;2022-11-03T06:15:34;10.50;99.90
3051;DHT22;1535;51.098;6.414;2022-11-03T06:18:11;10.50;99.90
3051;DHT22;1535;51.098;6.414;2022-11-03T06:20:40;10.50;99.90
3051;DHT22;1535;51.098;6.414;2022-11-03T06:23:09;10.50;99.90
3051;DHT22;1535;51.098;6.414;2022-11-03T06:25:39;10.40;99.90
3051;DHT22;1535;51.098;6.414;2022-11-03T06:28:10;10.50;99.90
3051;DHT22;1535;51.098;6.414;2022-11-03T06:30:42;10.50;99.90
3051;DHT22;1535;51.098;6.414;2022-11-03T06:33:13;10.50;99.90
3051;DHT22;1535;51.098;6.414;2022-11-03T06:35:41;10.50;99.90
3051;DHT22;1535;51.098;6.414;2022-11-03T06:38:14;10.50;99.90
3051;DHT22;1535;51.098;6.414;2022-11-03T06:40:41;10.50;99.90
3051;DHT22;1535;51.098;6.414;2022-11-03T06:43:15;10.50;99.90
3051;DHT22;1535;51.098;6.414;2022-11-03T06:45:48;10.50;99.90
3051;DHT22;1535;51.098;6.414;2022-11-03T06:48:23;10.50;99.90
3051;DHT22;1535;51.098;6.414;2022-11-03T06:50:51;10.50;99.90
3051;DHT22;1535;51.098;6.414;2022-11-03T06:53:24;10.50;99.90
3051;DHT22;1535;51.098;6.414;2022-11-03T06:55:51;10.60;99.90
3051;DHT22;1535;51.098;6.414;2022-11-03T06:58:23;10.60;99.90
3051;DHT22;1535;51.098;6.414;2022-11-03T07:00:52;10.60;99.90
3051;DHT22;1535;51.098;6.414;2022-11-03T07:03:25;10.60;99.90
3051;DHT22;1535;51.098;6.414;2022-11-03T07:05:56;10.70;99.90
3051;DHT22;1535;51.098;6.414;2022-11-03T07:08:25;10.80;99.90
3051;DHT22;1535;51.098;6.414;2022-11-03T07:11:02;10.80;99.90
3051;DHT22;1535;51.098;6.414;2022-11-03T07:13:31;10.80;99.90
3051;DHT22;1535;51.098;6.414;2022-11-03T07:15:59;10.80;99.90
3051;DHT22;1535;51.098;6.414;2022-11-03T07:18:30;10.90;99.90
3051;DHT22;1535;51.098;6.414;2022-11-03T07:21:03;11.00;99.90
3051;DHT22;1535;51.098;6.414;2022-11-03T07:23:30;11.10;99.90
3051;DHT22;1535;51.098;6.414;2022-11-03T07:25:59;11.20;99.90
3051;DHT22;1535;51.098;6.414;2022-11-03T07:28:32;11.20;99.90
3051;DHT22;1535;51.098;6.414;2022-11-03T07:31:00;11.20;99.90
3051;DHT22;1535;51.098;6.414;2022-11-03T07:33:33;11.30;99.90
3051;DHT22;1535;51.098;6.414;2022-11-03T07:36:00;11.40;99.90
3051;DHT22;1535;51.098;6.414;2022-11-03T07:38:29;11.40;99.90
3051;DHT22;1535;51.098;6.414;2022-11-03T07:40:57;11.40;99.90
3051;DHT22;1535;51.098;6.414;2022-11-03T07:43:28;11.50;99.90
3051;DHT22;1535;51.098;6.414;2022-11-03T07:45:57;11.60;99.90
3051;DHT22;1535;51.098;6.414;2022-11-03T07:48:26;11.60;99.90
3051;DHT22;1535;51.098;6.414;2022-11-03T07:50:58;11.60;99.90
3051;DHT22;1535;51.098;6.414;2022-11-03T07:53:34;11.70;99.90
3051;DHT22;1535;51.098;6.414;2022-11-03T07:56:01;11.70;99.90
3051;DHT22;1535;51.098;6.414;2022-11-03T07:58:39;11.80;99.90
3051;DHT22;1535;51.098;6.414;2022-11-03T08:01:18;11.80;99.90
3051;DHT22;1535;51.098;6.414;2022-11-03T08:03:47;11.80;99.90
3051;DHT22;1535;51.098;6.414;2022-11-03T08:06:15;11.80;99.90
3051;DHT22;1535;51.098;6.414;2022-11-03T08:08:42;11.90;99.90
3051;DHT22;1535;51.098;6.414;2022-11-03T08:11:09;12.00;99.90
3051;DHT22;1535;51.098;6.414;2022-11-03T08:13:36;12.10;99.90
3051;DHT22;1535;51.098;6.414;2022-11-03T08:16:03;12.10;99.90
3051;DHT22;1535;51.098;6.414;2022-11-03T08:18:30;12.20;99.90
3051;DHT22;1535;51.098;6.414;2022-11-03T08:20:57;12.20;99.90
3051;DHT22;1535;51.098;6.414;2022-11-03T08:23:26;12.30;99.90
3051;DHT22;1535;51.098;6.414;2022-11-03T08:25:53;12.30;99.90
3051;DHT22;1535;51.098;6.414;2022-11-03T08:28:19;12.40;99.90
3051;DHT22;1535;51.098;6.414;2022-11-03T08:30:46;12.40;99.90
3051;DHT22;1535;51.098;6.414;2022-11-03T08:33:13;12.50;99.90
3051;DHT22;1535;51.098;6.414;2022-11-03T08:35:40;12.60;99.90
3051;DHT22;1535;51.098;6.414;2022-11-03T08:38:07;12.60;99.90
3051;DHT22;1535;51.098;6.414;2022-11-03T08:40:35;12.60;99.90
3051;DHT22;1535;51.098;6.414;2022-11-03T08:43:02;12.70;99.90
3051;DHT22;1535;51.098;6.414;2022-11-03T08:45:30;12.70;99.90
3051;DHT22;1535;51.098;6.414;2022-11-03T08:47:57;12.80;99.90
3051;DHT22;1535;51.098;6.414;2022-11-03T08:50:24;12.80;99.90
3051;DHT22;1535;51.098;6.414;2022-11-03T08:52:51;12.90;99.90
3051;DHT22;1535;51.098;6.414;2022-11-03T08:55:18;13.00;99.90
3051;DHT22;1535;51.098;6.414;2022-11-03T08:57:46;13.10;99.90
3051;DHT22;1535;51.098;6.414;2022-11-03T09:00:13;13.20;99.90
3051;DHT22;1535;51.098;6.414;2022-11-03T09:02:42;13.20;99.90
3051;DHT22;1535;51.098;6.414;2022-11-03T09:05:09;13.30;99.90
3051;DHT22;1535;51.098;6.414;2022-11-03T09:07:37;13.30;99.90
3051;DHT22;1535;51.098;6.414;2022-11-03T09:10:06;13.30;99.90
3051;DHT22;1535;51.098;6.414;2022-11-03T09:12:34;13.30;99.90
3051;DHT22;1535;51.098;6.414;2022-11-03T09:15:03;13.30;99.90
3051;DHT22;1535;51.098;6.414;2022-11-03T09:17:30;13.50;99.90
3051;DHT22;1535;51.098;6.414;2022-11-03T09:19:58;13.60;99.90
3051;DHT22;1535;51.098;6.414;2022-11-03T09:22:25;13.60;99.90
3051;DHT22;1535;51.098;6.414;2022-11-03T09:24:51;13.70;99.90
3051;DHT22;1535;51.098;6.414;2022-11-03T09:27:19;13.70;99.90
3051;DHT22;1535;51.098;6.414;2022-11-03T09:29:45;13.60;99.90
3051;DHT22;1535;51.098;6.414;2022-11-03T09:32:14;13.60;99.90
3051;DHT22;1535;51.098;6.414;2022-11-03T09:34:41;13.70;99.90
3051;DHT22;1535;51.098;6.414;2022-11-03T09:37:08;13.80;99.90
3051;DHT22;1535;51.098;6.414;2022-11-03T09:39:35;13.80;99.90
3051;DHT22;1535;51.098;6.414;2022-11-03T09:42:02;13.70;99.90
3051;DHT22;1535;51.098;6.414;2022-11-03T09:44:32;13.90;99.90
3051;DHT22;1535;51.098;6.414;2022-11-03T09:47:00;14.00;99.90
3051;DHT22;1535;51.098;6.414;2022-11-03T09:49:30;14.10;99.90
3051;DHT22;1535;51.098;6.414;2022-11-03T09:51:58;14.10;99.90
3051;DHT22;1535;51.098;6.414;2022-11-03T09:54:25;14.10;99.90
3051;DHT22;1535;51.098;6.414;2022-11-03T09:56:52;14.10;99.90
3051;DHT22;1535;51.098;6.414;2022-11-03T09:59:21;14.20;99.90
3051;DHT22;1535;51.098;6.414;2022-11-03T10:01:50;14.20;99.90
3051;DHT22;1535;51.098;6.414;2022-11-03T10:04:22;14.20;99.90
3051;DHT22;1535;51.098;6.414;2022-11-03T10:06:51;14.30;99.90
3051;DHT22;1535;51.098;6.414;2022-11-03T10:09:19;14.40;99.90
3051;DHT22;1535;51.098;6.414;2022-11-03T10:11:47;14.40;99.90
3051;DHT22;1535;51.098;6.414;2022-11-03T10:14:16;14.60;99.90
3051;DHT22;1535;51.098;6.414;2022-11-03T10:16:49;14.40;99.90
3051;DHT22;1535;51.098;6.414;2022-11-03T10:19:17;14.40;99.90
3051;DHT22;1535;51.098;6.414;2022-11-03T10:21:44;14.40;99.90
3051;DHT22;1535;51.098;6.414;2022-11-03T10:24:13;14.50;99.90
3051;DHT22;1535;51.098;6.414;2022-11-03T10:26:45;14.60;99.90
3051;DHT22;1535;51.098;6.414;2022-11-03T10:29:20;14.50;99.90
3051;DHT22;1535;51.098;6.414;2022-11-03T10:31:49;14.50;99.90
3051;DHT22;1535;51.098;6.414;2022-11-03T10:34:31;14.40;99.90
3051;DHT22;1535;51.098;6.414;2022-11-03T10:37:22;14.50;99.90
3051;DHT22;1535;51.098;6.414;2022-11-03T10:39:51;14.60;99.90
3051;DHT22;1535;51.098;6.414;2022-11-03T10:42:20;14.60;99.90
3051;DHT22;1535;51.098;6.414;2022-11-03T10:44:50;14.50;99.90
3051;DHT22;1535;51.098;6.414;2022-11-03T10:47:28;14.60;99.90
3051;DHT22;1535;51.098;6.414;2022-11-03T10:49:56;14.60;99.90
3051;DHT22;1535;51.098;6.414;2022-11-03T10:52:24;14.60;99.90
3051;DHT22;1535;51.098;6.414;2022-11-03T10:54:55;14.60;99.90
3051;DHT22;1535;51.098;6.414;2022-11-03T10:57:23;14.80;99.90
3051;DHT22;1535;51.098;6.414;2022-11-03T10:59:51;14.70;99.90
3051;DHT22;1535;51.098;6.414;2022-11-03T11:02:20;14.80;99.90
3051;DHT22;1535;51.098;6.414;2022-11-03T11:04:50;15.10;99.90
3051;DHT22;1535;51.098;6.414;2022-11-03T11:07:20;15.10;99.90
3051;DHT22;1535;51.098;6.414;2022-11-03T11:09:49;15.10;99.90
3051;DHT22;1535;51.098;6.414;2022-11-03T11:12:21;15.10;99.90
3051;DHT22;1535;51.098;6.414;2022-11-03T11:14:53;15.40;99.90
3051;DHT22;1535;51.098;6.414;2022-11-03T11:17:42;15.30;99.90
3051;DHT22;1535;51.098;6.414;2022-11-03T11:20:31;15.20;99.90
3051;DHT22;1535;51.098;6.414;2022-11-03T11:26:32;15.40;99.90
3051;DHT22;1535;51.098;6.414;2022-11-03T11:39:06;15.10;99.90
3051;DHT22;1535;51.098;6.414;2022-11-03T11:42:08;15.10;99.90
3051;DHT22;1535;51.098;6.414;2022-11-03T11:44:50;15.00;99.90
3051;DHT22;1535;51.098;6.414;2022-11-03T11:47:25;14.80;99.90
3051;DHT22;1535;51.098;6.414;2022-11-03T11:50:05;14.80;99.90
3051;DHT22;1535;51.098;6.414;2022-11-03T11:52:41;14.60;99.90
3051;DHT22;1535;51.098;6.414;2022-11-03T11:55:16;14.70;99.90
3051;DHT22;1535;51.098;6.414;2022-11-03T11:57:46;14.60;99.90
3051;DHT22;1535;51.098;6.414;2022-11-03T12:00:18;14.60;99.90
3051;DHT22;1535;51.098;6.414;2022-11-03T12:02:47;14.60;99.90
3051;DHT22;1535;51.098;6.414;2022-11-03T12:05:18;14.60;99.90
3051;DHT22;1535;51.098;6.414;2022-11-03T12:07:45;14.90;99.90
3051;DHT22;1535;51.098;6.414;2022-11-03T12:10:16;15.10;99.90
3051;DHT22;1535;51.098;6.414;2022-11-03T12:12:43;15.00;99.90
3051;DHT22;1535;51.098;6.414;2022-11-03T12:18:33;15.20;99.90
3051;DHT22;1535;51.098;6.414;2022-11-03T12:21:01;15.20;99.90
3051;DHT22;1535;51.098;6.414;2022-11-03T12:23:40;15.10;99.90
3051;DHT22;1535;51.098;6.414;2022-11-03T12:26:17;15.20;99.90
3051;DHT22;1535;51.098;6.414;2022-11-03T12:28:44;15.10;99.90
3051;DHT22;1535;51.098;6.414;2022-11-03T12:31:11;15.10;99.90
3051;DHT22;1535;51.098;6.414;2022-11-03T12:33:38;15.10;99.90
3051;DHT22;1535;51.098;6.414;2022-11-03T12:36:06;15.20;99.90
3051;DHT22;1535;51.098;6.414;2022-11-03T12:38:33;15.20;99.90
3051;DHT22;1535;51.098;6.414;2022-11-03T12:41:00;15.10;99.90
3051;DHT22;1535;51.098;6.414;2022-11-03T12:43:47;15.10;99.90
3051;DHT22;1535;51.098;6.414;2022-11-03T12:46:15;15.00;99.90
3051;DHT22;1535;51.098;6.414;2022-11-03T12:48:42;15.00;99.90
3051;DHT22;1535;51.098;6.414;2022-11-03T12:51:11;15.00;99.90
3051;DHT22;1535;51.098;6.414;2022-11-03T12:53:39;14.90;99.90
3051;DHT22;1535;51.098;6.414;2022-11-03T12:56:06;14.80;99.90
3051;DHT22;1535;51.098;6.414;2022-11-03T12:58:33;14.80;99.90
3051;DHT22;1535;51.098;6.414;2022-11-03T13:01:03;14.90;99.90
3051;DHT22;1535;51.098;6.414;2022-11-03T13:03:31;14.90;99.90
3051;DHT22;1535;51.098;6.414;2022-11-03T13:05:58;14.90;99.90
3051;DHT22;1535;51.098;6.414;2022-11-03T13:08:25;14.90;99.90
3051;DHT22;1535;51.098;6.414;2022-11-03T13:10:53;14.90;99.90
3051;DHT22;1535;51.098;6.414;2022-11-03T13:13:20;14.80;99.90
3051;DHT22;1535;51.098;6.414;2022-11-03T13:15:47;15.00;99.90
3051;DHT22;1535;51.098;6.414;2022-11-03T13:18:16;15.00;99.90
3051;DHT22;1535;51.098;6.414;2022-11-03T13:20:42;15.00;99.90
3051;DHT22;1535;51.098;6.414;2022-11-03T13:23:09;14.90;99.90
3051;DHT22;1535;51.098;6.414;2022-11-03T13:25:36;14.90;99.90
3051;DHT22;1535;51.098;6.414;2022-11-03T13:28:03;14.80;99.90
3051;DHT22;1535;51.098;6.414;2022-11-03T13:30:31;14.90;99.90
3051;DHT22;1535;51.098;6.414;2022-11-03T13:32:59;14.90;99.90
3051;DHT22;1535;51.098;6.414;2022-11-03T13:35:27;14.90;99.90
3051;DHT22;1535;51.098;6.414;2022-11-03T13:37:53;15.00;99.90
3051;DHT22;1535;51.098;6.414;2022-11-03T13:40:20;15.00;99.90
3051;DHT22;1535;51.098;6.414;2022-11-03T13:42:48;14.90;99.90
3051;DHT22;1535;51.098;6.414;2022-11-03T13:45:15;14.80;99.90
3051;DHT22;1535;51.098;6.414;2022-11-03T13:47:42;14.80;99.90
3051;DHT22;1535;51.098;6.414;2022-11-03T13:50:09;14.80;99.90
3051;DHT22;1535;51.098;6.414;2022-11-03T13:52:37;14.70;99.90
3051;DHT22;1535;51.098;6.414;2022-11-03T13:55:04;14.60;99.90
3051;DHT22;1535;51.098;6.414;2022-11-03T13:57:31;14.60;99.90
3051;DHT22;1535;51.098;6.414;2022-11-03T13:59:58;14.60;99.90
3051;DHT22;1535;51.098;6.414;2022-11-03T14:02:25;14.60;99.90
3051;DHT22;1535;51.098;6.414;2022-11-03T14:04:53;14.50;99.90
3051;DHT22;1535;51.098;6.414;2022-11-03T14:07:20;14.50;99.90
3051;DHT22;1535;51.098;6.414;2022-11-03T14:09:48;14.40;99.90
3051;DHT22;1535;51.098;6.414;2022-11-03T14:12:15;14.30;99.90
3051;DHT22;1535;51.098;6.414;2022-11-03T14:14:58;14.10;99.90
3051;DHT22;1535;51.098;6.414;2022-11-03T14:17:25;13.90;99.90
3051;DHT22;1535;51.098;6.414;2022-11-03T14:19:54;13.70;99.90
3051;DHT22;1535;51.098;6.414;2022-11-03T14:22:21;13.60;99.90
3051;DHT22;1535;51.098;6.414;2022-11-03T14:24:51;13.40;99.90
3051;DHT22;1535;51.098;6.414;2022-11-03T14:27:18;13.30;99.90
3051;DHT22;1535;51.098;6.414;2022-11-03T14:29:45;13.20;99.90
3051;DHT22;1535;51.098;6.414;2022-11-03T14:32:14;13.10;99.90
3051;DHT22;1535;51.098;6.414;2022-11-03T14:34:41;13.10;99.90
3051;DHT22;1535;51.098;6.414;2022-11-03T14:37:09;13.00;99.90
3051;DHT22;1535;51.098;6.414;2022-11-03T14:39:36;12.90;99.90
3051;DHT22;1535;51.098;6.414;2022-11-03T14:42:05;12.70;99.90
3051;DHT22;1535;51.098;6.414;2022-11-03T14:44:35;12.60;99.90
3051;DHT22;1535;51.098;6.414;2022-11-03T14:47:04;12.50;99.90
3051;DHT22;1535;51.098;6.414;2022-11-03T14:49:32;12.40;99.90
3051;DHT22;1535;51.098;6.414;2022-11-03T14:52:00;12.30;99.90
3051;DHT22;1535;51.098;6.414;2022-11-03T14:54:28;12.30;99.90
3051;DHT22;1535;51.098;6.414;2022-11-03T14:56:55;12.20;99.90
3051;DHT22;1535;51.098;6.414;2022-11-03T14:59:23;12.20;99.90
3051;DHT22;1535;51.098;6.414;2022-11-03T15:01:51;12.10;99.90
3051;DHT22;1535;51.098;6.414;2022-11-03T15:04:18;12.10;99.90
3051;DHT22;1535;51.098;6.414;2022-11-03T15:06:46;12.00;99.90
3051;DHT22;1535;51.098;6.414;2022-11-03T15:09:13;12.00;99.90
3051;DHT22;1535;51.098;6.414;2022-11-03T15:11:40;12.00;99.90
3051;DHT22;1535;51.098;6.414;2022-11-03T15:14:07;11.90;99.90
3051;DHT22;1535;51.098;6.414;2022-11-03T15:16:36;11.90;99.90
3051;DHT22;1535;51.098;6.414;2022-11-03T15:19:03;11.90;99.90
3051;DHT22;1535;51.098;6.414;2022-11-03T15:21:30;11.80;99.90
3051;DHT22;1535;51.098;6.414;2022-11-03T15:23:57;11.80;99.90
3051;DHT22;1535;51.098;6.414;2022-11-03T15:26:25;11.80;99.90
3051;DHT22;1535;51.098;6.414;2022-11-03T15:28:52;11.80;99.90
3051;DHT22;1535;51.098;6.414;2022-11-03T15:31:20;11.80;99.90
3051;DHT22;1535;51.098;6.414;2022-11-03T15:33:49;11.80;99.90
3051;DHT22;1535;51.098;6.414;2022-11-03T15:36:16;11.80;99.90
3051;DHT22;1535;51.098;6.414;2022-11-03T15:38:45;11.80;99.90
3051;DHT22;1535;51.098;6.414;2022-11-03T15:41:12;11.90;99.90
3051;DHT22;1535;51.098;6.414;2022-11-03T15:43:42;11.80;99.90
3051;DHT22;1535;51.098;6.414;2022-11-03T15:46:09;11.80;99.90
3051;DHT22;1535;51.098;6.414;2022-11-03T15:48:36;11.90;99.90
3051;DHT22;1535;51.098;6.414;2022-11-03T15:51:05;11.80;99.90
3051;DHT22;1535;51.098;6.414;2022-11-03T15:53:32;11.80;99.90
3051;DHT22;1535;51.098;6.414;2022-11-03T15:55:59;11.80;99.90
3051;DHT22;1535;51.098;6.414;2022-11-03T15:58:27;11.90;99.90
3051;DHT22;1535;51.098;6.414;2022-11-03T16:00:57;11.90;99.90
3051;DHT22;1535;51.098;6.414;2022-11-03T16:03:24;11.90;99.90
3051;DHT22;1535;51.098;6.414;2022-11-03T16:05:51;11.90;99.90
3051;DHT22;1535;51.098;6.414;2022-11-03T16:08:19;11.90;99.90
3051;DHT22;1535;51.098;6.414;2022-11-03T16:10:46;11.80;99.90
3051;DHT22;1535;51.098;6.414;2022-11-03T16:13:14;11.90;99.90
3051;DHT22;1535;51.098;6.414;2022-11-03T16:15:40;11.90;99.90
3051;DHT22;1535;51.098;6.414;2022-11-03T16:18:07;11.90;99.90
3051;DHT22;1535;51.098;6.414;2022-11-03T16:20:34;11.90;99.90
3051;DHT22;1535;51.098;6.414;2022-11-03T16:23:01;11.90;99.90
3051;DHT22;1535;51.098;6.414;2022-11-03T16:25:30;11.90;99.90
3051;DHT22;1535;51.098;6.414;2022-11-03T16:27:57;11.90;99.90
3051;DHT22;1535;51.098;6.414;2022-11-03T16:30:24;11.90;99.90
3051;DHT22;1535;51.098;6.414;2022-11-03T16:32:51;11.90;99.90
3051;DHT22;1535;51.098;6.414;2022-11-03T16:35:18;11.90;99.90
3051;DHT22;1535;51.098;6.414;2022-11-03T16:37:45;11.90;99.90
3051;DHT22;1535;51.098;6.414;2022-11-03T16:40:12;11.90;99.90
3051;DHT22;1535;51.098;6.414;2022-11-03T16:42:41;11.90;99.90